sensor_id;sensor_type;location;lat;lon;timestamp;temperature;humidity
44695;DHT22;32845;59.422;17.930;2022-10-16T00:02:40;12.90;99.90
44695;DHT22;32845;59.422;17.930;2022-10-16T00:07:10;12.90;99.90
44695;DHT22;32845;59.422;17.930;2022-10-16T00:11:41;12.80;99.90
44695;DHT22;32845;59.422;17.930;2022-10-16T00:16:13;12.80;99.90
44695;DHT22;32845;59.422;17.930;2022-10-16T00:20:44;12.80;99.90
44695;DHT22;32845;59.422;17.930;2022-10-16T00:25:14;12.80;99.90
44695;DHT22;32845;59.422;17.930;2022-10-16T00:29:49;12.70;99.90
44695;DHT22;32845;59.422;17.930;2022-10-16T00:34:20;12.70;99.90
44695;DHT22;32845;59.422;17.930;2022-10-16T00:38:57;12.70;99.90
44695;DHT22;32845;59.422;17.930;2022-10-16T00:48:03;12.60;99.90
44695;DHT22;32845;59.422;17.930;2022-10-16T00:52:34;12.50;99.90
44695;DHT22;32845;59.422;17.930;2022-10-16T00:57:06;12.50;99.90
44695;DHT22;32845;59.422;17.930;2022-10-16T01:01:37;12.40;99.90
44695;DHT22;32845;59.422;17.930;2022-10-16T01:06:47;12.50;99.90
44695;DHT22;32845;59.422;17.930;2022-10-16T01:12:09;12.40;99.90
44695;DHT22;32845;59.422;17.930;2022-10-16T01:17:12;12.40;99.90
44695;DHT22;32845;59.422;17.930;2022-10-16T01:21:45;12.30;99.90
44695;DHT22;32845;59.422;17.930;2022-10-16T01:30:56;12.30;99.90
44695;DHT22;32845;59.422;17.930;2022-10-16T01:35:42;12.30;99.90
44695;DHT22;32845;59.422;17.930;2022-10-16T01:40:18;12.30;99.90
44695;DHT22;32845;59.422;17.930;2022-10-16T01:44:51;12.30;99.90
44695;DHT22;32845;59.422;17.930;2022-10-16T01:49:25;12.40;99.90
44695;DHT22;32845;59.422;17.930;2022-10-16T01:53:59;12.40;99.90
44695;DHT22;32845;59.422;17.930;2022-10-16T01:58:34;12.40;99.90
44695;DHT22;32845;59.422;17.930;2022-10-16T02:03:07;12.40;99.90
44695;DHT22;32845;59.422;17.930;2022-10-16T02:07:39;12.40;99.90
44695;DHT22;32845;59.422;17.930;2022-10-16T02:12:26;12.40;99.90
44695;DHT22;32845;59.422;17.930;2022-10-16T02:16:57;12.40;99.90
44695;DHT22;32845;59.422;17.930;2022-10-16T02:21:49;12.40;99.90
44695;DHT22;32845;59.422;17.930;2022-10-16T02:26:37;12.40;99.90
44695;DHT22;32845;59.422;17.930;2022-10-16T02:31:11;12.40;99.90
44695;DHT22;32845;59.422;17.930;2022-10-16T02:35:44;12.40;99.90
44695;DHT22;32845;59.422;17.930;2022-10-16T02:40:18;12.40;99.90
44695;DHT22;32845;59.422;17.930;2022-10-16T02:44:49;12.50;99.90
44695;DHT22;32845;59.422;17.930;2022-10-16T02:49:19;12.40;99.90
44695;DHT22;32845;59.422;17.930;2022-10-16T02:53:50;12.40;99.90
44695;DHT22;32845;59.422;17.930;2022-10-16T02:58:21;12.40;99.90
44695;DHT22;32845;59.422;17.930;2022-10-16T03:02:51;12.40;99.90
44695;DHT22;32845;59.422;17.930;2022-10-16T03:07:22;12.40;99.90
44695;DHT22;32845;59.422;17.930;2022-10-16T03:11:53;12.40;99.90
44695;DHT22;32845;59.422;17.930;2022-10-16T03:16:24;12.40;99.90
44695;DHT22;32845;59.422;17.930;2022-10-16T03:20:54;12.40;99.90
44695;DHT22;32845;59.422;17.930;2022-10-16T03:25:25;12.40;99.90
44695;DHT22;32845;59.422;17.930;2022-10-16T03:29:56;12.40;99.90
44695;DHT22;32845;59.422;17.930;2022-10-16T03:34:26;12.40;99.90
44695;DHT22;32845;59.422;17.930;2022-10-16T03:38:58;12.40;99.90
44695;DHT22;32845;59.422;17.930;2022-10-16T03:43:28;12.30;99.90
44695;DHT22;32845;59.422;17.930;2022-10-16T03:47:59;12.30;99.90
44695;DHT22;32845;59.422;17.930;2022-10-16T03:52:30;12.30;99.90
44695;DHT22;32845;59.422;17.930;2022-10-16T03:57:02;12.30;99.90
44695;DHT22;32845;59.422;17.930;2022-10-16T04:01:33;12.30;99.90
44695;DHT22;32845;59.422;17.930;2022-10-16T04:06:04;12.30;99.90
44695;DHT22;32845;59.422;17.930;2022-10-16T04:10:34;12.20;99.90
44695;DHT22;32845;59.422;17.930;2022-10-16T04:15:05;12.20;99.90
44695;DHT22;32845;59.422;17.930;2022-10-16T04:19:36;12.20;99.90
44695;DHT22;32845;59.422;17.930;2022-10-16T04:24:07;12.20;99.90
44695;DHT22;32845;59.422;17.930;2022-10-16T04:28:37;12.20;99.90
44695;DHT22;32845;59.422;17.930;2022-10-16T04:33:09;12.20;99.90
44695;DHT22;32845;59.422;17.930;2022-10-16T04:37:40;12.20;99.90
44695;DHT22;32845;59.422;17.930;2022-10-16T04:42:16;12.10;99.90
44695;DHT22;32845;59.422;17.930;2022-10-16T04:46:46;12.10;99.90
44695;DHT22;32845;59.422;17.930;2022-10-16T04:51:17;12.10;99.90
44695;DHT22;32845;59.422;17.930;2022-10-16T04:55:49;12.10;99.90
44695;DHT22;32845;59.422;17.930;2022-10-16T05:00:20;12.10;99.90
44695;DHT22;32845;59.422;17.930;2022-10-16T05:04:52;12.10;99.90
44695;DHT22;32845;59.422;17.930;2022-10-16T05:09:23;12.10;99.90
44695;DHT22;32845;59.422;17.930;2022-10-16T05:13:54;12.10;99.90
44695;DHT22;32845;59.422;17.930;2022-10-16T05:18:24;12.10;99.90
44695;DHT22;32845;59.422;17.930;2022-10-16T05:22:55;12.00;99.90
44695;DHT22;32845;59.422;17.930;2022-10-16T05:27:25;12.00;99.90
44695;DHT22;32845;59.422;17.930;2022-10-16T05:31:56;12.00;99.90
44695;DHT22;32845;59.422;17.930;2022-10-16T05:36:27;12.00;99.90
44695;DHT22;32845;59.422;17.930;2022-10-16T05:41:04;12.00;99.90
44695;DHT22;32845;59.422;17.930;2022-10-16T05:45:35;11.90;99.90
44695;DHT22;32845;59.422;17.930;2022-10-16T05:50:06;11.90;99.90
44695;DHT22;32845;59.422;17.930;2022-10-16T05:54:37;12.00;99.90
44695;DHT22;32845;59.422;17.930;2022-10-16T05:59:07;12.00;99.90
44695;DHT22;32845;59.422;17.930;2022-10-16T06:03:38;12.00;99.90
44695;DHT22;32845;59.422;17.930;2022-10-16T06:08:09;12.00;99.90
44695;DHT22;32845;59.422;17.930;2022-10-16T06:12:40;12.00;99.90
44695;DHT22;32845;59.422;17.930;2022-10-16T06:17:10;12.00;99.90
44695;DHT22;32845;59.422;17.930;2022-10-16T06:21:41;12.00;99.90
44695;DHT22;32845;59.422;17.930;2022-10-16T06:26:14;12.10;99.90
44695;DHT22;32845;59.422;17.930;2022-10-16T06:30:45;12.10;99.90
44695;DHT22;32845;59.422;17.930;2022-10-16T06:35:16;12.20;99.90
44695;DHT22;32845;59.422;17.930;2022-10-16T06:39:47;12.20;99.90
44695;DHT22;32845;59.422;17.930;2022-10-16T06:44:17;12.20;99.90
44695;DHT22;32845;59.422;17.930;2022-10-16T06:48:48;12.20;99.90
44695;DHT22;32845;59.422;17.930;2022-10-16T06:53:19;12.30;99.90
44695;DHT22;32845;59.422;17.930;2022-10-16T06:57:49;12.30;99.90
44695;DHT22;32845;59.422;17.930;2022-10-16T07:02:30;12.40;99.90
44695;DHT22;32845;59.422;17.930;2022-10-16T07:07:01;12.40;99.90
44695;DHT22;32845;59.422;17.930;2022-10-16T07:11:38;12.40;99.90
44695;DHT22;32845;59.422;17.930;2022-10-16T07:16:12;12.40;99.90
44695;DHT22;32845;59.422;17.930;2022-10-16T07:20:43;12.40;99.90
44695;DHT22;32845;59.422;17.930;2022-10-16T07:25:14;12.50;99.90
44695;DHT22;32845;59.422;17.930;2022-10-16T07:29:45;12.50;99.90
44695;DHT22;32845;59.422;17.930;2022-10-16T07:34:17;12.50;99.90
44695;DHT22;32845;59.422;17.930;2022-10-16T07:38:48;12.50;99.90
44695;DHT22;32845;59.422;17.930;2022-10-16T07:43:18;12.60;99.90
44695;DHT22;32845;59.422;17.930;2022-10-16T07:47:49;12.60;99.90
44695;DHT22;32845;59.422;17.930;2022-10-16T07:52:20;12.60;99.90
44695;DHT22;32845;59.422;17.930;2022-10-16T07:56:50;12.60;99.90
44695;DHT22;32845;59.422;17.930;2022-10-16T08:01:26;12.70;99.90
44695;DHT22;32845;59.422;17.930;2022-10-16T08:05:58;12.60;99.90
44695;DHT22;32845;59.422;17.930;2022-10-16T08:10:29;12.60;99.90
44695;DHT22;32845;59.422;17.930;2022-10-16T08:15:00;12.60;99.90
44695;DHT22;32845;59.422;17.930;2022-10-16T08:19:36;12.60;99.90
44695;DHT22;32845;59.422;17.930;2022-10-16T08:24:07;12.60;99.90
44695;DHT22;32845;59.422;17.930;2022-10-16T08:28:38;12.60;99.90
44695;DHT22;32845;59.422;17.930;2022-10-16T08:33:08;12.70;99.90
44695;DHT22;32845;59.422;17.930;2022-10-16T08:37:39;12.70;99.90
44695;DHT22;32845;59.422;17.930;2022-10-16T08:42:52;12.70;99.90
44695;DHT22;32845;59.422;17.930;2022-10-16T08:47:49;12.70;99.90
44695;DHT22;32845;59.422;17.930;2022-10-16T08:52:28;12.80;99.90
44695;DHT22;32845;59.422;17.930;2022-10-16T08:57:21;12.70;99.90
44695;DHT22;32845;59.422;17.930;2022-10-16T09:01:52;12.80;99.90
44695;DHT22;32845;59.422;17.930;2022-10-16T09:11:53;12.80;99.90
44695;DHT22;32845;59.422;17.930;2022-10-16T09:16:39;12.90;99.90
44695;DHT22;32845;59.422;17.930;2022-10-16T09:21:23;12.90;99.90
44695;DHT22;32845;59.422;17.930;2022-10-16T09:25:56;13.00;99.90
44695;DHT22;32845;59.422;17.930;2022-10-16T09:30:29;13.00;99.90
44695;DHT22;32845;59.422;17.930;2022-10-16T09:35:00;13.00;99.90
44695;DHT22;32845;59.422;17.930;2022-10-16T09:39:44;13.10;99.90
44695;DHT22;32845;59.422;17.930;2022-10-16T09:48:59;13.20;99.90
44695;DHT22;32845;59.422;17.930;2022-10-16T09:53:45;13.20;99.90
44695;DHT22;32845;59.422;17.930;2022-10-16T09:58:16;13.30;99.90
44695;DHT22;32845;59.422;17.930;2022-10-16T10:02:47;13.50;99.90
44695;DHT22;32845;59.422;17.930;2022-10-16T10:07:23;13.70;99.90
44695;DHT22;32845;59.422;17.930;2022-10-16T10:12:00;14.10;99.90
44695;DHT22;32845;59.422;17.930;2022-10-16T10:16:32;14.50;99.90
44695;DHT22;32845;59.422;17.930;2022-10-16T10:21:03;14.90;99.90
44695;DHT22;32845;59.422;17.930;2022-10-16T10:40:19;14.70;99.90
44695;DHT22;32845;59.422;17.930;2022-10-16T11:00:10;14.20;99.90
44695;DHT22;32845;59.422;17.930;2022-10-16T11:10:02;14.40;99.90
44695;DHT22;32845;59.422;17.930;2022-10-16T11:19:49;14.70;99.90
44695;DHT22;32845;59.422;17.930;2022-10-16T11:24:26;15.20;99.90
44695;DHT22;32845;59.422;17.930;2022-10-16T11:29:01;15.80;99.90
44695;DHT22;32845;59.422;17.930;2022-10-16T11:33:41;15.70;99.90
44695;DHT22;32845;59.422;17.930;2022-10-16T11:43:13;15.50;99.90
44695;DHT22;32845;59.422;17.930;2022-10-16T11:47:54;15.30;99.90
44695;DHT22;32845;59.422;17.930;2022-10-16T11:52:52;15.10;99.90
44695;DHT22;32845;59.422;17.930;2022-10-16T11:57:27;15.00;99.90
44695;DHT22;32845;59.422;17.930;2022-10-16T12:07:05;14.70;99.90
44695;DHT22;32845;59.422;17.930;2022-10-16T12:11:40;14.70;99.90
44695;DHT22;32845;59.422;17.930;2022-10-16T12:20:57;14.90;99.90
44695;DHT22;32845;59.422;17.930;2022-10-16T12:25:40;14.90;99.90
44695;DHT22;32845;59.422;17.930;2022-10-16T12:30:22;14.80;99.90
44695;DHT22;32845;59.422;17.930;2022-10-16T12:34:54;14.70;99.90
44695;DHT22;32845;59.422;17.930;2022-10-16T12:39:27;14.60;99.90
44695;DHT22;32845;59.422;17.930;2022-10-16T12:43:59;14.60;99.90
44695;DHT22;32845;59.422;17.930;2022-10-16T12:48:31;14.50;99.90
44695;DHT22;32845;59.422;17.930;2022-10-16T12:53:17;14.50;99.90
44695;DHT22;32845;59.422;17.930;2022-10-16T13:22:02;14.30;99.90
44695;DHT22;32845;59.422;17.930;2022-10-16T13:31:22;15.20;99.90
44695;DHT22;32845;59.422;17.930;2022-10-16T13:35:56;15.20;99.90
44695;DHT22;32845;59.422;17.930;2022-10-16T13:40:27;15.00;99.90
44695;DHT22;32845;59.422;17.930;2022-10-16T13:44:57;14.90;99.90
44695;DHT22;32845;59.422;17.930;2022-10-16T13:49:28;14.80;99.90
44695;DHT22;32845;59.422;17.930;2022-10-16T13:53:59;14.60;99.90
44695;DHT22;32845;59.422;17.930;2022-10-16T13:58:30;14.50;99.90
44695;DHT22;32845;59.422;17.930;2022-10-16T14:03:03;14.40;99.90
44695;DHT22;32845;59.422;17.930;2022-10-16T14:07:35;14.10;99.90
44695;DHT22;32845;59.422;17.930;2022-10-16T14:12:14;13.90;99.90
44695;DHT22;32845;59.422;17.930;2022-10-16T14:16:45;13.80;99.90
44695;DHT22;32845;59.422;17.930;2022-10-16T14:21:17;13.70;99.90
44695;DHT22;32845;59.422;17.930;2022-10-16T14:25:48;13.50;99.90
44695;DHT22;32845;59.422;17.930;2022-10-16T14:30:21;13.30;99.90
44695;DHT22;32845;59.422;17.930;2022-10-16T14:34:53;13.20;99.90
44695;DHT22;32845;59.422;17.930;2022-10-16T14:39:25;13.10;99.90
44695;DHT22;32845;59.422;17.930;2022-10-16T14:44:01;13.00;99.90
44695;DHT22;32845;59.422;17.930;2022-10-16T14:48:33;13.00;99.90
44695;DHT22;32845;59.422;17.930;2022-10-16T14:53:13;12.90;99.90
44695;DHT22;32845;59.422;17.930;2022-10-16T14:57:44;12.80;99.90
44695;DHT22;32845;59.422;17.930;2022-10-16T15:06:57;12.70;99.90
44695;DHT22;32845;59.422;17.930;2022-10-16T15:11:27;12.70;99.90
44695;DHT22;32845;59.422;17.930;2022-10-16T15:15:58;12.70;99.90
44695;DHT22;32845;59.422;17.930;2022-10-16T15:20:31;12.70;99.90
44695;DHT22;32845;59.422;17.930;2022-10-16T15:30:01;12.70;99.90
44695;DHT22;32845;59.422;17.930;2022-10-16T15:34:31;12.70;99.90
44695;DHT22;32845;59.422;17.930;2022-10-16T15:39:14;12.50;99.90
44695;DHT22;32845;59.422;17.930;2022-10-16T15:43:48;12.30;99.90
44695;DHT22;32845;59.422;17.930;2022-10-16T15:48:18;12.10;99.90
44695;DHT22;32845;59.422;17.930;2022-10-16T15:52:50;12.00;99.90
44695;DHT22;32845;59.422;17.930;2022-10-16T15:57:21;11.80;99.90
44695;DHT22;32845;59.422;17.930;2022-10-16T16:01:52;11.70;99.90
44695;DHT22;32845;59.422;17.930;2022-10-16T16:06:22;11.60;99.90
44695;DHT22;32845;59.422;17.930;2022-10-16T16:11:03;11.30;99.90
44695;DHT22;32845;59.422;17.930;2022-10-16T16:15:34;11.20;99.90
44695;DHT22;32845;59.422;17.930;2022-10-16T16:20:10;11.10;99.90
44695;DHT22;32845;59.422;17.930;2022-10-16T16:24:41;11.00;99.90
44695;DHT22;32845;59.422;17.930;2022-10-16T16:29:14;10.90;99.90
44695;DHT22;32845;59.422;17.930;2022-10-16T16:33:45;10.80;99.90
44695;DHT22;32845;59.422;17.930;2022-10-16T16:38:16;10.70;99.90
44695;DHT22;32845;59.422;17.930;2022-10-16T16:42:48;10.60;99.90
44695;DHT22;32845;59.422;17.930;2022-10-16T16:47:19;10.60;99.90
44695;DHT22;32845;59.422;17.930;2022-10-16T16:51:50;10.50;99.90
44695;DHT22;32845;59.422;17.930;2022-10-16T16:56:22;10.60;99.90
44695;DHT22;32845;59.422;17.930;2022-10-16T17:00:53;10.50;99.90
44695;DHT22;32845;59.422;17.930;2022-10-16T17:05:24;10.50;99.90
44695;DHT22;32845;59.422;17.930;2022-10-16T17:09:56;10.40;99.90
44695;DHT22;32845;59.422;17.930;2022-10-16T17:14:26;10.40;99.90
44695;DHT22;32845;59.422;17.930;2022-10-16T17:19:01;10.40;99.90
44695;DHT22;32845;59.422;17.930;2022-10-16T17:23:33;10.40;99.90
44695;DHT22;32845;59.422;17.930;2022-10-16T17:28:05;10.40;99.90
44695;DHT22;32845;59.422;17.930;2022-10-16T17:32:36;10.30;99.90
44695;DHT22;32845;59.422;17.930;2022-10-16T17:37:07;10.30;99.90
44695;DHT22;32845;59.422;17.930;2022-10-16T17:41:38;10.30;99.90
44695;DHT22;32845;59.422;17.930;2022-10-16T17:46:10;10.20;99.90
44695;DHT22;32845;59.422;17.930;2022-10-16T17:50:42;10.20;99.90
44695;DHT22;32845;59.422;17.930;2022-10-16T17:55:12;10.20;99.90
44695;DHT22;32845;59.422;17.930;2022-10-16T17:59:43;10.20;99.90
44695;DHT22;32845;59.422;17.930;2022-10-16T18:04:15;10.10;99.90
44695;DHT22;32845;59.422;17.930;2022-10-16T18:08:46;10.10;99.90
44695;DHT22;32845;59.422;17.930;2022-10-16T18:13:17;10.00;99.90
44695;DHT22;32845;59.422;17.930;2022-10-16T18:17:48;9.90;99.90
44695;DHT22;32845;59.422;17.930;2022-10-16T18:22:18;9.90;99.90
44695;DHT22;32845;59.422;17.930;2022-10-16T18:26:50;9.90;99.90
44695;DHT22;32845;59.422;17.930;2022-10-16T18:31:32;9.80;99.90
44695;DHT22;32845;59.422;17.930;2022-10-16T18:36:08;9.90;99.90
44695;DHT22;32845;59.422;17.930;2022-10-16T18:41:04;9.90;99.90
44695;DHT22;32845;59.422;17.930;2022-10-16T18:45:35;9.90;99.90
44695;DHT22;32845;59.422;17.930;2022-10-16T18:50:06;10.00;99.90
44695;DHT22;32845;59.422;17.930;2022-10-16T18:54:37;10.00;99.90
44695;DHT22;32845;59.422;17.930;2022-10-16T18:59:12;10.10;99.90
44695;DHT22;32845;59.422;17.930;2022-10-16T19:03:43;10.10;99.90
44695;DHT22;32845;59.422;17.930;2022-10-16T19:08:14;10.10;99.90
44695;DHT22;32845;59.422;17.930;2022-10-16T19:12:44;10.10;99.90
44695;DHT22;32845;59.422;17.930;2022-10-16T19:17:15;10.10;99.90
44695;DHT22;32845;59.422;17.930;2022-10-16T19:21:46;10.10;99.90
44695;DHT22;32845;59.422;17.930;2022-10-16T19:26:27;10.00;99.90
44695;DHT22;32845;59.422;17.930;2022-10-16T19:31:16;10.00;99.90
44695;DHT22;32845;59.422;17.930;2022-10-16T19:35:47;10.00;99.90
44695;DHT22;32845;59.422;17.930;2022-10-16T19:40:18;10.00;99.90
44695;DHT22;32845;59.422;17.930;2022-10-16T19:44:49;10.00;99.90
44695;DHT22;32845;59.422;17.930;2022-10-16T19:49:20;10.10;99.90
44695;DHT22;32845;59.422;17.930;2022-10-16T19:54:05;10.10;99.90
44695;DHT22;32845;59.422;17.930;2022-10-16T19:58:36;10.10;99.90
44695;DHT22;32845;59.422;17.930;2022-10-16T20:03:21;10.10;99.90
44695;DHT22;32845;59.422;17.930;2022-10-16T20:07:52;10.10;99.90
44695;DHT22;32845;59.422;17.930;2022-10-16T20:12:23;10.10;99.90
44695;DHT22;32845;59.422;17.930;2022-10-16T20:16:54;10.10;99.90
44695;DHT22;32845;59.422;17.930;2022-10-16T20:21:28;10.10;99.90
44695;DHT22;32845;59.422;17.930;2022-10-16T20:26:00;10.00;99.90
44695;DHT22;32845;59.422;17.930;2022-10-16T20:30:49;10.00;99.90
44695;DHT22;32845;59.422;17.930;2022-10-16T20:35:20;9.90;99.90
44695;DHT22;32845;59.422;17.930;2022-10-16T20:39:50;9.90;99.90
44695;DHT22;32845;59.422;17.930;2022-10-16T20:44:21;9.90;99.90
44695;DHT22;32845;59.422;17.930;2022-10-16T20:48:53;9.90;99.90
44695;DHT22;32845;59.422;17.930;2022-10-16T20:53:23;9.90;99.90
44695;DHT22;32845;59.422;17.930;2022-10-16T20:57:54;9.90;99.90
44695;DHT22;32845;59.422;17.930;2022-10-16T21:02:25;9.90;99.90
44695;DHT22;32845;59.422;17.930;2022-10-16T21:06:56;9.90;99.90
44695;DHT22;32845;59.422;17.930;2022-10-16T21:11:27;9.90;99.90
44695;DHT22;32845;59.422;17.930;2022-10-16T21:15:58;9.90;99.90
44695;DHT22;32845;59.422;17.930;2022-10-16T21:20:31;9.90;99.90
44695;DHT22;32845;59.422;17.930;2022-10-16T21:25:02;9.90;99.90
44695;DHT22;32845;59.422;17.930;2022-10-16T21:29:48;9.90;99.90
44695;DHT22;32845;59.422;17.930;2022-10-16T21:34:18;10.00;99.90
44695;DHT22;32845;59.422;17.930;2022-10-16T21:38:49;10.00;99.90
44695;DHT22;32845;59.422;17.930;2022-10-16T21:43:20;10.00;99.90
44695;DHT22;32845;59.422;17.930;2022-10-16T21:47:51;10.00;99.90
44695;DHT22;32845;59.422;17.930;2022-10-16T21:52:21;10.00;99.90
44695;DHT22;32845;59.422;17.930;2022-10-16T21:56:52;10.00;99.90
44695;DHT22;32845;59.422;17.930;2022-10-16T22:01:29;10.10;99.90
44695;DHT22;32845;59.422;17.930;2022-10-16T22:06:04;10.10;99.90
44695;DHT22;32845;59.422;17.930;2022-10-16T22:10:41;10.00;99.90
44695;DHT22;32845;59.422;17.930;2022-10-16T22:15:12;10.10;99.90
44695;DHT22;32845;59.422;17.930;2022-10-16T22:19:43;10.10;99.90
44695;DHT22;32845;59.422;17.930;2022-10-16T22:24:14;10.10;99.90
44695;DHT22;32845;59.422;17.930;2022-10-16T22:28:45;10.00;99.90
44695;DHT22;32845;59.422;17.930;2022-10-16T22:33:21;10.00;99.90
44695;DHT22;32845;59.422;17.930;2022-10-16T22:37:52;9.90;99.90
44695;DHT22;32845;59.422;17.930;2022-10-16T22:42:22;9.90;99.90
44695;DHT22;32845;59.422;17.930;2022-10-16T22:46:53;9.90;99.90
44695;DHT22;32845;59.422;17.930;2022-10-16T22:51:33;9.80;99.90
44695;DHT22;32845;59.422;17.930;2022-10-16T22:56:04;9.80;99.90
44695;DHT22;32845;59.422;17.930;2022-10-16T23:00:44;9.90;99.90
44695;DHT22;32845;59.422;17.930;2022-10-16T23:05:15;9.90;99.90
44695;DHT22;32845;59.422;17.930;2022-10-16T23:10:01;9.90;99.90
44695;DHT22;32845;59.422;17.930;2022-10-16T23:14:32;9.90;99.90
44695;DHT22;32845;59.422;17.930;2022-10-16T23:19:02;9.90;99.90
44695;DHT22;32845;59.422;17.930;2022-10-16T23:23:37;9.80;99.90
44695;DHT22;32845;59.422;17.930;2022-10-16T23:28:08;9.80;99.90
44695;DHT22;32845;59.422;17.930;2022-10-16T23:32:48;9.80;99.90
44695;DHT22;32845;59.422;17.930;2022-10-16T23:37:19;9.80;99.90
44695;DHT22;32845;59.422;17.930;2022-10-16T23:41:50;9.80;99.90
44695;DHT22;32845;59.422;17.930;2022-10-16T23:46:20;9.80;99.90
44695;DHT22;32845;59.422;17.930;2022-10-16T23:50:51;9.70;99.90
44695;DHT22;32845;59.422;17.930;2022-10-16T23:55:22;9.70;99.90
